This is the latest recevied weather packets stored in our database for station/object EA2RCU-15. If no packets are shown the sender has not sent any weather packets the latest 10 day(s).
| Time | Temp. | Humidity | Pressure | Rain* | Wind** | Luminosity | Snow |
|---|---|---|---|---|---|---|---|
| 1787421904 | 27.78° C | 31% | 998 hPa | 0 mm | - | - | - |
| 1787421604 | 31.11° C | 25% | 998 hPa | 0 mm | - | - | - |
| 1787421304 | 34.44° C | 20% | 998 hPa | 0 mm | - | - | - |
| 1787421004 | 34.44° C | 21% | 998 hPa | 0 mm | - | - | - |
| 1787420704 | 35.56° C | 19% | 998 hPa | 0 mm | - | - | - |
| 1787420404 | 35.56° C | 19% | 998 hPa | 0 mm | - | - | - |
| 1787420104 | 36.11° C | 19% | 998 hPa | 0 mm | - | - | - |
| 1787419804 | 35.56° C | 19% | 998 hPa | 0 mm | - | - | - |
| 1787419504 | 35.56° C | 20% | 998 hPa | 0 mm | - | - | - |
| 1787419204 | 34.44° C | 20% | 998 hPa | 0 mm | - | - | - |
| 1787418904 | 33.33° C | 20% | 998 hPa | 0 mm | - | - | - |
| 1787418604 | 35° C | 18% | 998 hPa | 0 mm | - | - | - |
| 1787418304 | 36.67° C | 17% | 998 hPa | 0 mm | - | - | - |
| 1787418004 | 37.78° C | 17% | 998 hPa | 0 mm | - | - | - |
| 1787417704 | 38.33° C | 17% | 998 hPa | 0 mm | - | - | - |
| 1787417404 | 35° C | 18% | 998 hPa | 0 mm | - | - | - |
| 1787416804 | 37.78° C | 16% | 998 hPa | 0 mm | - | - | - |
| 1787416504 | 39.44° C | 15% | 998 hPa | 0 mm | - | - | - |
| 1787416204 | 39.44° C | 16% | 998 hPa | 0 mm | - | - | - |
| 1787415904 | 38.89° C | 16% | 998 hPa | 0 mm | - | - | - |
| 1787415604 | 37.78° C | 17% | 998 hPa | 0 mm | - | - | - |
| 1787415303 | 40° C | 15% | 998 hPa | 0 mm | - | - | - |
| 1787415004 | 40.56° C | 15% | 998 hPa | 0 mm | - | - | - |
| 1787414704 | 40.56° C | 15% | 998 hPa | 0 mm | - | - | - |
| 1787414404 | 40° C | 15% | 998 hPa | 0 mm | - | - | - |
* Rain latest hour (hover to see other rain measurements)
** Current wind speed in m/s (hover to see current wind gust speed)